Time;durP1;ratioP1;P1;durP2;ratioP2;P2;SDS_P1;SDS_P2;PMS_P1;PMS_P2;Temp;Humidity;BMP_temperature;BMP_pressure;BME280_temperature;BME280_humidity;BME280_pressure;Samples;Min_cycle;Max_cycle;Signal;HPM_P1;HPM_P2
2023/09/06 00:01:12;;;;;;;3.10;2.10;;;19.00;99.90;;;;;;5012221;28;20068;-84
2023/09/06 00:03:37;;;;;;;3.72;2.20;;;19.00;99.90;;;;;;4996599;28;20052;-84
2023/09/06 00:06:04;;;;;;;3.95;2.10;;;19.00;99.90;;;;;;4995793;28;20111;-82
2023/09/06 00:08:34;;;;;;;3.35;1.70;;;19.00;99.90;;;;;;4980549;28;20434;-83
2023/09/06 00:11:04;;;;;;;2.00;1.50;;;19.00;99.90;;;;;;4979686;28;20049;-83
2023/09/06 00:13:32;;;;;;;3.95;1.98;;;18.90;99.90;;;;;;4980224;28;20048;-84
2023/09/06 00:15:58;;;;;;;3.55;2.20;;;18.80;99.90;;;;;;4996213;28;20042;-84
2023/09/06 00:18:23;;;;;;;4.97;3.33;;;18.80;99.90;;;;;;4996348;28;20049;-84
2023/09/06 00:20:49;;;;;;;6.25;3.83;;;18.70;99.90;;;;;;5013529;28;20034;-84
2023/09/06 00:23:17;;;;;;;6.45;3.55;;;18.70;99.90;;;;;;5014036;28;20080;-84
2023/09/06 00:25:43;;;;;;;6.65;3.85;;;18.60;99.90;;;;;;4979821;28;20491;-83
2023/09/06 00:28:09;;;;;;;6.43;3.63;;;18.60;99.90;;;;;;4995849;28;20084;-85
2023/09/06 00:30:35;;;;;;;6.63;3.70;;;18.60;99.90;;;;;;4980162;28;20041;-86
2023/09/06 00:33:06;;;;;;;7.22;4.00;;;18.60;99.90;;;;;;4995647;28;20565;-85
2023/09/06 00:35:32;;;;;;;6.43;3.73;;;18.60;99.90;;;;;;4996207;28;20410;-85
2023/09/06 00:38:04;;;;;;;6.38;3.97;;;18.60;99.90;;;;;;4995590;28;20494;-83
2023/09/06 00:40:30;;;;;;;7.50;4.70;;;18.60;99.90;;;;;;4979806;28;20487;-84
2023/09/06 00:42:59;;;;;;;8.05;4.70;;;18.50;99.90;;;;;;4978885;28;20057;-84
2023/09/06 00:45:29;;;;;;;9.23;4.57;;;18.50;99.90;;;;;;4995363;28;20061;-83
2023/09/06 00:47:56;;;;;;;6.40;4.32;;;18.50;99.90;;;;;;4979591;28;20042;-84
2023/09/06 00:50:22;;;;;;;7.75;4.63;;;18.50;99.90;;;;;;4980438;28;20042;-84
2023/09/06 00:52:49;;;;;;;8.38;4.40;;;18.60;99.90;;;;;;4996180;28;20064;-84
2023/09/06 00:55:14;;;;;;;7.60;4.55;;;18.50;99.90;;;;;;4995713;28;20088;-84
2023/09/06 00:57:41;;;;;;;6.88;4.97;;;18.50;99.90;;;;;;5011261;28;20449;-84
2023/09/06 01:00:12;;;;;;;8.63;5.30;;;18.50;99.90;;;;;;4979887;28;20041;-85
2023/09/06 01:02:38;;;;;;;7.30;5.13;;;18.40;99.90;;;;;;4979690;28;20073;-85
2023/09/06 01:05:04;;;;;;;7.30;5.22;;;18.40;99.90;;;;;;5013256;28;20457;-86
2023/09/06 01:07:34;;;;;;;7.63;4.70;;;18.40;99.90;;;;;;4995542;28;20041;-86
2023/09/06 01:10:01;;;;;;;7.43;4.90;;;18.30;99.90;;;;;;4996332;28;20046;-87
2023/09/06 01:12:28;;;;;;;6.72;4.75;;;18.30;99.90;;;;;;4978952;28;20034;-85
2023/09/06 01:14:53;;;;;;;6.90;4.45;;;18.20;99.90;;;;;;4979805;28;20092;-84
2023/09/06 01:17:21;;;;;;;6.50;4.35;;;18.20;99.90;;;;;;4995611;28;20046;-84
2023/09/06 01:19:53;;;;;;;6.22;3.58;;;18.20;99.90;;;;;;4979161;28;20111;-84
2023/09/06 01:22:30;;;;;;;7.10;4.63;;;18.20;99.90;;;;;;4995479;28;20042;-84
2023/09/06 01:24:57;;;;;;;7.95;4.47;;;18.20;99.90;;;;;;5013199;28;20038;-84
2023/09/06 01:27:23;;;;;;;6.93;4.45;;;18.20;99.90;;;;;;4995131;28;20188;-83
2023/09/06 01:29:48;;;;;;;7.07;4.78;;;18.10;99.90;;;;;;5016763;28;20044;-83
2023/09/06 01:32:14;;;;;;;7.43;4.85;;;18.10;99.90;;;;;;4998994;28;20406;-83
2023/09/06 01:34:40;;;;;;;8.27;4.95;;;18.10;99.90;;;;;;5000071;28;20097;-83
2023/09/06 01:37:05;;;;;;;7.25;4.95;;;18.10;99.90;;;;;;5016963;28;20046;-83
2023/09/06 01:39:31;;;;;;;8.70;5.65;;;18.10;99.90;;;;;;5015573;28;20462;-83
2023/09/06 01:41:56;;;;;;;7.80;5.40;;;18.00;99.90;;;;;;4998725;28;20046;-82
2023/09/06 01:44:22;;;;;;;8.30;6.05;;;18.00;99.90;;;;;;4999246;28;20041;-83
2023/09/06 01:46:47;;;;;;;7.72;5.25;;;18.00;99.90;;;;;;5014207;28;20037;-83
2023/09/06 01:49:13;;;;;;;7.32;5.18;;;18.00;99.90;;;;;;5017093;28;20120;-84
2023/09/06 01:51:38;;;;;;;9.02;5.55;;;18.00;99.90;;;;;;4998474;28;20030;-83
2023/09/06 01:54:06;;;;;;;9.45;5.85;;;18.00;99.90;;;;;;4999268;28;20510;-83
2023/09/06 01:56:31;;;;;;;7.68;5.50;;;17.90;99.90;;;;;;4997915;28;20041;-83
2023/09/06 01:58:57;;;;;;;9.02;5.63;;;17.90;99.90;;;;;;4999087;28;20096;-84
2023/09/06 02:01:23;;;;;;;8.50;5.75;;;17.90;99.90;;;;;;4997492;28;20096;-83
2023/09/06 02:03:48;;;;;;;8.20;5.65;;;17.90;99.90;;;;;;4998864;28;20103;-84
2023/09/06 02:06:14;;;;;;;8.35;5.40;;;17.80;99.90;;;;;;4998857;28;20125;-84
2023/09/06 02:08:39;;;;;;;8.98;6.25;;;17.80;99.90;;;;;;4999052;28;20133;-83
2023/09/06 02:11:06;;;;;;;9.15;5.28;;;17.80;99.90;;;;;;5015774;28;20042;-83
2023/09/06 02:13:32;;;;;;;8.07;5.32;;;17.80;99.90;;;;;;4998761;28;20039;-85
2023/09/06 02:16:02;;;;;;;7.80;5.57;;;17.80;99.90;;;;;;4998566;28;20052;-84
2023/09/06 02:18:27;;;;;;;8.25;5.43;;;17.80;99.90;;;;;;4982257;28;20034;-83
2023/09/06 02:20:56;;;;;;;8.07;5.32;;;17.80;99.90;;;;;;4997902;28;20038;-83
2023/09/06 02:23:22;;;;;;;7.95;4.68;;;17.70;99.90;;;;;;4981855;28;20037;-83
2023/09/06 02:25:48;;;;;;;8.60;5.15;;;17.70;99.90;;;;;;4982087;28;20556;-83
2023/09/06 02:28:17;;;;;;;8.73;5.65;;;17.70;99.90;;;;;;5015892;28;20128;-83
2023/09/06 02:30:43;;;;;;;9.32;5.35;;;17.80;99.90;;;;;;4997828;28;20038;-83
2023/09/06 02:33:11;;;;;;;7.72;4.93;;;17.70;99.90;;;;;;4994246;28;20054;-84
2023/09/06 02:35:40;;;;;;;8.35;5.28;;;17.70;99.90;;;;;;4994838;28;20173;-84
2023/09/06 02:38:07;;;;;;;8.93;5.35;;;17.80;99.90;;;;;;4995177;28;20125;-83
2023/09/06 02:40:34;;;;;;;8.10;4.80;;;17.70;99.90;;;;;;4976994;28;20046;-83
2023/09/06 02:43:00;;;;;;;9.32;5.22;;;17.80;99.90;;;;;;4994652;28;20402;-83
2023/09/06 02:45:36;;;;;;;7.72;5.00;;;17.80;99.90;;;;;;4978572;28;20049;-83
2023/09/06 02:48:13;;;;;;;7.85;5.05;;;17.70;99.90;;;;;;4978547;28;20045;-83
2023/09/06 02:50:40;;;;;;;8.20;5.50;;;17.80;99.90;;;;;;4978613;28;20088;-84
2023/09/06 02:53:16;;;;;;;8.27;5.00;;;17.80;99.90;;;;;;4995825;28;20038;-84
2023/09/06 02:55:42;;;;;;;7.47;5.13;;;17.80;99.90;;;;;;4994652;28;20046;-84
2023/09/06 02:58:10;;;;;;;7.72;4.70;;;17.80;99.90;;;;;;4978708;28;20447;-84
2023/09/06 03:00:40;;;;;;;7.32;4.72;;;17.70;99.90;;;;;;4994810;28;20046;-84
2023/09/06 03:03:05;;;;;;;7.68;5.25;;;17.70;99.90;;;;;;4994362;28;20039;-84
2023/09/06 03:05:32;;;;;;;7.93;5.00;;;17.70;99.90;;;;;;4995680;28;20038;-83
2023/09/06 03:07:57;;;;;;;7.75;4.93;;;17.70;99.90;;;;;;4995260;28;20046;-82
2023/09/06 03:10:23;;;;;;;7.38;4.63;;;17.70;99.90;;;;;;4994686;28;20038;-82
2023/09/06 03:12:59;;;;;;;6.65;4.47;;;17.80;99.90;;;;;;4993792;28;20034;-82
2023/09/06 03:15:29;;;;;;;8.02;4.95;;;17.70;99.90;;;;;;4994422;28;20046;-83
2023/09/06 03:17:58;;;;;;;7.47;4.80;;;17.60;99.90;;;;;;4978294;28;20402;-82
2023/09/06 03:20:42;;;;;;;7.63;4.88;;;17.60;99.90;;;;;;4994393;28;20046;-81
2023/09/06 03:23:17;;;;;;;7.18;4.95;;;17.60;99.90;;;;;;4993909;28;20046;-82
2023/09/06 03:25:47;;;;;;;6.97;4.18;;;17.50;99.90;;;;;;4993985;28;20495;-81
2023/09/06 03:28:20;;;;;;;6.28;4.03;;;17.50;99.90;;;;;;4977268;28;20418;-82
2023/09/06 03:30:46;;;;;;;7.07;4.40;;;17.50;99.90;;;;;;4978619;28;20455;-83
2023/09/06 03:33:12;;;;;;;8.35;4.55;;;17.50;99.90;;;;;;4984443;28;20058;-82
2023/09/06 03:35:37;;;;;;;8.13;5.10;;;17.40;99.90;;;;;;4996832;28;20049;-82
2023/09/06 03:38:08;;;;;;;7.43;4.13;;;17.40;99.90;;;;;;4979622;28;20050;-82
2023/09/06 03:40:37;;;;;;;6.85;4.22;;;17.40;99.90;;;;;;4998115;28;20069;-82
2023/09/06 03:43:14;;;;;;;8.60;4.80;;;17.40;99.90;;;;;;4996698;28;20038;-82
2023/09/06 03:45:44;;;;;;;7.32;4.60;;;17.40;99.90;;;;;;4992515;28;20481;-82
2023/09/06 03:48:10;;;;;;;7.80;4.75;;;17.40;99.90;;;;;;4977612;28;20455;-82
2023/09/06 03:50:36;;;;;;;9.63;5.10;;;17.40;99.90;;;;;;4997623;28;20041;-82
2023/09/06 03:53:04;;;;;;;7.38;4.80;;;17.40;99.90;;;;;;4994628;28;20046;-82
2023/09/06 03:55:29;;;;;;;8.55;5.18;;;17.40;99.90;;;;;;4992863;28;20030;-82
2023/09/06 03:57:55;;;;;;;7.68;4.35;;;17.40;99.90;;;;;;4977086;28;20057;-82
2023/09/06 04:00:30;;;;;;;7.20;4.60;;;17.40;99.90;;;;;;4976893;28;20435;-82
2023/09/06 04:02:56;;;;;;;7.57;4.97;;;17.40;99.90;;;;;;4976592;28;20046;-82
2023/09/06 04:05:25;;;;;;;7.63;4.85;;;17.40;99.90;;;;;;4979570;28;20105;-83
2023/09/06 04:07:56;;;;;;;9.70;4.93;;;17.40;99.90;;;;;;4976105;28;20364;-82
2023/09/06 04:10:36;;;;;;;8.30;4.53;;;17.40;99.90;;;;;;4974452;28;20045;-82
2023/09/06 04:13:02;;;;;;;9.45;4.85;;;17.50;99.90;;;;;;4993024;28;20042;-82
2023/09/06 04:15:29;;;;;;;7.80;4.82;;;17.40;99.90;;;;;;4992432;28;20046;-81
2023/09/06 04:17:59;;;;;;;8.00;4.88;;;17.40;99.90;;;;;;4996097;28;20061;-81
2023/09/06 04:20:27;;;;;;;8.43;5.28;;;17.40;99.90;;;;;;4992249;28;20433;-82
2023/09/06 04:22:54;;;;;;;9.13;4.80;;;17.40;99.90;;;;;;4976871;28;20046;-83
2023/09/06 04:25:22;;;;;;;8.00;5.00;;;17.40;99.90;;;;;;4991584;28;20038;-82
2023/09/06 04:27:54;;;;;;;8.48;4.47;;;17.40;99.90;;;;;;4978193;28;20411;-83
2023/09/06 04:30:24;;;;;;;10.88;4.95;;;17.50;99.90;;;;;;4976989;28;20473;-82
2023/09/06 04:32:51;;;;;;;10.52;5.18;;;17.40;99.90;;;;;;4976308;28;20054;-82
2023/09/06 04:35:17;;;;;;;8.60;5.03;;;17.40;99.90;;;;;;5012378;28;20078;-82
2023/09/06 04:37:43;;;;;;;8.48;4.78;;;17.40;99.90;;;;;;4976340;28;20105;-82
2023/09/06 04:40:12;;;;;;;7.97;5.15;;;17.40;99.90;;;;;;4994006;28;20046;-82
2023/09/06 04:42:39;;;;;;;8.07;4.70;;;17.40;99.90;;;;;;4991746;28;20046;-82
2023/09/06 04:45:09;;;;;;;8.15;4.80;;;17.40;99.90;;;;;;4957123;28;20046;-82
2023/09/06 04:47:36;;;;;;;7.82;4.97;;;17.30;99.90;;;;;;4969061;28;20034;-82
2023/09/06 04:50:03;;;;;;;7.30;4.88;;;17.40;99.90;;;;;;4993227;28;20038;-82
2023/09/06 04:52:29;;;;;;;8.98;4.90;;;17.30;99.90;;;;;;4976375;28;20034;-82
2023/09/06 04:54:54;;;;;;;8.52;5.18;;;17.30;99.90;;;;;;4993974;28;20035;-83
2023/09/06 04:57:21;;;;;;;9.32;4.80;;;17.30;99.90;;;;;;4991776;28;20117;-82
2023/09/06 04:59:46;;;;;;;9.00;5.22;;;17.30;99.90;;;;;;4992519;28;20034;-82
2023/09/06 05:02:12;;;;;;;7.50;4.72;;;17.20;99.90;;;;;;4992240;28;20045;-83
2023/09/06 05:04:38;;;;;;;8.43;5.30;;;17.30;99.90;;;;;;4992260;28;20038;-83
2023/09/06 05:07:06;;;;;;;9.55;5.40;;;17.30;99.90;;;;;;5006726;28;20602;-83
2023/09/06 05:09:34;;;;;;;8.20;4.80;;;17.20;99.90;;;;;;4991728;28;20042;-83
2023/09/06 05:12:00;;;;;;;7.90;5.13;;;17.20;99.90;;;;;;4991934;28;20046;-83
2023/09/06 05:14:25;;;;;;;7.65;4.60;;;17.30;99.90;;;;;;4993758;28;20042;-83
2023/09/06 05:16:51;;;;;;;8.57;5.28;;;17.20;99.90;;;;;;4975788;28;20483;-83
2023/09/06 05:19:16;;;;;;;8.23;5.30;;;17.20;99.90;;;;;;4976060;28;20038;-83
2023/09/06 05:21:42;;;;;;;8.27;5.18;;;17.20;99.90;;;;;;4995446;28;20404;-83
2023/09/06 05:24:07;;;;;;;7.53;4.93;;;17.20;99.90;;;;;;4975136;28;20042;-83
2023/09/06 05:26:35;;;;;;;10.50;5.65;;;17.20;99.90;;;;;;4992999;28;20070;-83
2023/09/06 05:29:02;;;;;;;13.27;6.43;;;17.20;99.90;;;;;;5001885;28;20084;-83
2023/09/06 05:31:28;;;;;;;9.48;5.90;;;17.20;99.90;;;;;;4976166;28;20202;-83
2023/09/06 05:33:53;;;;;;;8.15;5.15;;;17.30;99.90;;;;;;4975793;28;20145;-83
2023/09/06 05:36:19;;;;;;;8.25;5.18;;;17.20;99.90;;;;;;4995787;28;20031;-83
2023/09/06 05:38:44;;;;;;;7.70;5.28;;;17.30;99.90;;;;;;4975778;28;20052;-83
2023/09/06 05:41:10;;;;;;;8.43;5.55;;;17.20;99.90;;;;;;4993127;28;20107;-82
2023/09/06 05:43:36;;;;;;;8.07;4.88;;;17.30;99.90;;;;;;4990906;28;20043;-82
2023/09/06 05:46:01;;;;;;;8.55;5.40;;;17.40;99.90;;;;;;5008318;28;20042;-82
2023/09/06 05:48:27;;;;;;;7.65;5.30;;;17.30;99.90;;;;;;5009324;28;20398;-82
2023/09/06 05:50:52;;;;;;;9.57;5.90;;;17.40;99.90;;;;;;4993249;28;20598;-82
2023/09/06 05:53:19;;;;;;;8.15;5.60;;;17.40;99.90;;;;;;4994223;28;20062;-83
2023/09/06 05:55:45;;;;;;;8.23;5.55;;;17.50;99.90;;;;;;4991414;28;20038;-83
2023/09/06 05:58:10;;;;;;;8.85;4.95;;;17.50;99.90;;;;;;4992158;28;20034;-84
2023/09/06 06:00:36;;;;;;;7.85;5.38;;;17.60;99.90;;;;;;4995126;28;20046;-84
2023/09/06 06:03:02;;;;;;;9.40;5.57;;;17.60;99.90;;;;;;4975519;28;20514;-83
2023/09/06 06:05:28;;;;;;;10.10;6.00;;;17.70;99.90;;;;;;4990461;28;20065;-84
2023/09/06 06:07:57;;;;;;;7.80;5.05;;;17.70;99.90;;;;;;4991723;28;20487;-84
2023/09/06 06:10:23;;;;;;;8.20;4.75;;;17.70;99.90;;;;;;4991835;28;20057;-84
2023/09/06 06:12:48;;;;;;;8.50;5.28;;;17.80;99.90;;;;;;4994201;28;20038;-84
2023/09/06 06:15:15;;;;;;;8.35;5.38;;;17.80;99.90;;;;;;4977655;28;20132;-84
2023/09/06 06:17:41;;;;;;;7.75;4.93;;;17.80;99.90;;;;;;4996068;28;20096;-84
2023/09/06 06:20:09;;;;;;;8.32;5.57;;;17.90;99.90;;;;;;4995234;28;20506;-84
2023/09/06 06:22:37;;;;;;;7.72;5.15;;;18.00;99.90;;;;;;4998323;28;20046;-85
2023/09/06 06:25:05;;;;;;;7.22;5.00;;;17.90;99.90;;;;;;4978954;28;20046;-85
2023/09/06 06:27:31;;;;;;;8.95;5.57;;;18.00;99.90;;;;;;4995108;28;20121;-85
2023/09/06 06:29:56;;;;;;;8.27;5.53;;;18.00;99.90;;;;;;4978872;28;20117;-85
2023/09/06 06:32:22;;;;;;;8.55;5.07;;;18.10;99.90;;;;;;4999955;28;20046;-83
2023/09/06 06:34:50;;;;;;;7.70;5.18;;;18.10;99.90;;;;;;4997991;28;20038;-84
2023/09/06 06:37:16;;;;;;;8.48;5.40;;;18.10;99.90;;;;;;4981898;28;20068;-84
2023/09/06 06:39:42;;;;;;;12.75;6.32;;;18.20;99.90;;;;;;5015756;28;20042;-85
2023/09/06 06:42:08;;;;;;;9.00;5.57;;;18.20;99.90;;;;;;4983984;28;20117;-83
2023/09/06 06:44:33;;;;;;;9.23;5.47;;;18.10;99.90;;;;;;5013373;28;20041;-85
2023/09/06 06:47:00;;;;;;;10.75;5.50;;;18.30;99.90;;;;;;4997621;28;20042;-83
2023/09/06 06:49:25;;;;;;;7.85;5.18;;;18.40;99.90;;;;;;5002658;28;20034;-81
2023/09/06 06:51:51;;;;;;;8.40;5.20;;;18.50;99.90;;;;;;4998477;28;20038;-77
2023/09/06 06:54:17;;;;;;;9.73;5.30;;;18.60;99.90;;;;;;4998199;28;20034;-80
2023/09/06 06:56:43;;;;;;;7.78;4.60;;;18.80;99.90;;;;;;4981666;28;20126;-80
2023/09/06 06:59:09;;;;;;;9.40;5.38;;;18.90;99.90;;;;;;4997872;28;20512;-80
2023/09/06 07:01:36;;;;;;;7.32;4.78;;;19.10;99.90;;;;;;4997758;28;20486;-80
2023/09/06 07:04:04;;;;;;;8.18;4.80;;;19.10;99.90;;;;;;4997849;28;20124;-80
2023/09/06 07:06:30;;;;;;;8.10;4.55;;;19.10;99.90;;;;;;4981469;28;20046;-80
2023/09/06 07:08:57;;;;;;;7.28;4.57;;;19.30;99.90;;;;;;4997962;28;20042;-80
2023/09/06 07:11:23;;;;;;;7.70;4.22;;;19.30;99.90;;;;;;4997553;28;20092;-80
2023/09/06 07:13:50;;;;;;;7.15;3.50;;;19.40;99.90;;;;;;4997676;28;20074;-80
2023/09/06 07:16:20;;;;;;;6.78;3.60;;;19.70;99.90;;;;;;4997578;28;20132;-80
2023/09/06 07:18:46;;;;;;;6.97;3.10;;;19.80;99.90;;;;;;4981296;28;20048;-81
2023/09/06 07:21:13;;;;;;;10.45;3.85;;;19.90;99.90;;;;;;4997407;28;20046;-81
2023/09/06 07:23:38;;;;;;;6.72;3.25;;;20.00;99.90;;;;;;4997397;28;20052;-81
2023/09/06 07:26:04;;;;;;;5.93;2.85;;;20.20;99.90;;;;;;4980578;28;20034;-81
2023/09/06 07:28:39;;;;;;;6.13;3.33;;;20.30;99.90;;;;;;4997162;28;20482;-81
2023/09/06 07:31:05;;;;;;;5.63;2.85;;;20.30;99.90;;;;;;5014939;28;20072;-81
2023/09/06 07:33:31;;;;;;;6.68;2.90;;;20.40;99.90;;;;;;4997263;28;20055;-81
2023/09/06 07:35:57;;;;;;;5.90;2.67;;;20.50;99.90;;;;;;4997463;28;20490;-81
2023/09/06 07:38:22;;;;;;;5.60;3.28;;;20.60;99.90;;;;;;4980854;28;20046;-82
2023/09/06 07:40:58;;;;;;;7.80;2.90;;;20.70;99.90;;;;;;5013429;28;20080;-82
2023/09/06 07:43:28;;;;;;;5.55;2.92;;;20.80;99.90;;;;;;4997043;28;20034;-81
2023/09/06 07:45:58;;;;;;;6.72;2.67;;;20.90;99.90;;;;;;4980678;28;20042;-82
2023/09/06 07:48:25;;;;;;;5.82;2.63;;;21.10;99.90;;;;;;4980823;28;20033;-83
2023/09/06 07:50:51;;;;;;;4.75;2.20;;;21.10;99.90;;;;;;4980704;28;20080;-82
2023/09/06 07:53:17;;;;;;;7.50;3.05;;;21.30;99.90;;;;;;4996872;28;20073;-82
2023/09/06 07:55:45;;;;;;;6.63;2.63;;;21.30;99.90;;;;;;4980639;28;20129;-82
2023/09/06 07:58:11;;;;;;;5.57;2.70;;;21.40;99.90;;;;;;4996760;28;20490;-83
2023/09/06 08:00:36;;;;;;;5.38;2.78;;;21.40;99.90;;;;;;4996823;28;20049;-83
2023/09/06 08:03:03;;;;;;;5.38;2.55;;;21.50;99.90;;;;;;4996738;28;20042;-84
2023/09/06 08:05:30;;;;;;;5.20;2.58;;;21.60;99.90;;;;;;4996578;28;20121;-82
2023/09/06 08:07:56;;;;;;;5.85;2.80;;;21.60;99.90;;;;;;4996596;28;20042;-82
2023/09/06 08:10:21;;;;;;;6.22;3.08;;;21.60;99.90;;;;;;4980275;28;20045;-83
2023/09/06 08:12:47;;;;;;;6.25;2.72;;;21.70;99.90;;;;;;4980363;28;20042;-82
2023/09/06 08:15:13;;;;;;;5.45;2.63;;;21.70;99.90;;;;;;4996552;28;20038;-83
2023/09/06 08:17:39;;;;;;;5.18;2.15;;;21.90;99.90;;;;;;5014059;28;20409;-82
2023/09/06 08:20:08;;;;;;;5.05;2.58;;;22.20;99.90;;;;;;4996434;28;20041;-83
2023/09/06 08:22:35;;;;;;;9.10;2.35;;;22.10;99.90;;;;;;4996253;28;20042;-82
2023/09/06 08:25:02;;;;;;;5.80;2.25;;;22.10;99.90;;;;;;4996254;28;20073;-82
2023/09/06 08:27:28;;;;;;;5.50;2.70;;;22.20;99.90;;;;;;4996564;28;20037;-83
2023/09/06 08:29:53;;;;;;;5.05;2.60;;;22.20;99.90;;;;;;5013916;28;20038;-83
2023/09/06 08:32:19;;;;;;;5.13;2.80;;;22.30;99.90;;;;;;4996060;28;20394;-83
2023/09/06 08:34:45;;;;;;;6.60;2.60;;;22.40;99.90;;;;;;4996128;28;20042;-83
2023/09/06 08:37:10;;;;;;;5.75;2.42;;;22.40;99.90;;;;;;4979744;28;20038;-77
2023/09/06 08:39:36;;;;;;;4.55;2.30;;;22.50;99.90;;;;;;4995704;28;20049;-80
2023/09/06 08:42:04;;;;;;;6.75;2.70;;;22.60;99.90;;;;;;4980443;28;20065;-79
2023/09/06 08:44:31;;;;;;;5.05;2.50;;;22.70;99.90;;;;;;4994641;28;20558;-80
2023/09/06 08:47:01;;;;;;;4.80;2.65;;;22.80;99.90;;;;;;4995498;28;20073;-80
2023/09/06 08:49:27;;;;;;;5.63;2.67;;;22.90;99.90;;;;;;4996006;28;20490;-80
2023/09/06 08:51:55;;;;;;;6.55;2.65;;;23.00;99.90;;;;;;5012806;28;20042;-80
2023/09/06 08:54:23;;;;;;;6.40;2.33;;;23.30;99.90;;;;;;4979392;28;20129;-79
2023/09/06 08:56:50;;;;;;;5.78;2.55;;;23.20;99.90;;;;;;4996105;28;20073;-80
2023/09/06 08:59:18;;;;;;;6.40;2.25;;;23.30;99.90;;;;;;4979868;28;20394;-80
2023/09/06 09:01:44;;;;;;;4.80;2.47;;;23.40;99.90;;;;;;5011384;28;20506;-79
2023/09/06 09:04:09;;;;;;;6.15;2.60;;;23.40;99.90;;;;;;4995476;28;20070;-79
2023/09/06 09:06:35;;;;;;;6.10;2.58;;;23.40;99.90;;;;;;4978933;28;20383;-80
2023/09/06 09:09:17;;;;;;;6.35;2.30;;;23.50;99.90;;;;;;4995779;28;20056;-80
2023/09/06 09:11:45;;;;;;;6.97;2.83;;;23.60;99.90;;;;;;4995580;28;20048;-80
2023/09/06 09:14:21;;;;;;;5.50;2.28;;;23.60;99.90;;;;;;5001403;28;20398;-80
2023/09/06 09:16:58;;;;;;;5.03;2.42;;;23.80;99.90;;;;;;4979459;28;20050;-80
2023/09/06 09:19:25;;;;;;;7.10;2.55;;;23.80;99.90;;;;;;4995906;28;20038;-80
2023/09/06 09:21:52;;;;;;;4.88;2.47;;;23.90;99.90;;;;;;4995120;28;20576;-79
2023/09/06 09:24:30;;;;;;;5.50;2.25;;;23.90;99.90;;;;;;4995615;28;20046;-79
2023/09/06 09:26:59;;;;;;;6.00;2.50;;;23.90;99.90;;;;;;4995541;28;20508;-79
2023/09/06 09:29:27;;;;;;;4.57;2.45;;;23.90;99.90;;;;;;4993655;28;20177;-80
2023/09/06 09:31:53;;;;;;;6.10;2.05;;;24.00;99.90;;;;;;4975800;28;20126;-80
2023/09/06 09:34:18;;;;;;;7.28;2.35;;;24.40;99.90;;;;;;4975906;28;20496;-79
2023/09/06 09:36:50;;;;;;;5.07;2.15;;;24.50;99.90;;;;;;4996780;28;20034;-80
2023/09/06 09:39:18;;;;;;;5.70;2.60;;;24.70;99.90;;;;;;4996482;28;20046;-81
2023/09/06 09:41:44;;;;;;;6.10;2.72;;;24.60;99.90;;;;;;5029903;28;20038;-80
2023/09/06 09:44:19;;;;;;;7.85;3.00;;;24.60;99.90;;;;;;4998701;28;20041;-79
2023/09/06 09:46:45;;;;;;;4.55;2.10;;;24.60;99.90;;;;;;5032770;28;20072;-79
2023/09/06 09:49:13;;;;;;;4.30;2.40;;;24.70;99.90;;;;;;5033823;28;20107;-79
2023/09/06 09:51:40;;;;;;;5.43;2.70;;;24.80;99.90;;;;;;5002374;28;20040;-79
2023/09/06 09:54:07;;;;;;;4.70;2.58;;;24.90;99.90;;;;;;5002421;28;20045;-79
2023/09/06 09:56:33;;;;;;;4.82;2.47;;;25.00;99.90;;;;;;5018536;28;20095;-79
2023/09/06 09:59:03;;;;;;;4.15;2.17;;;24.90;99.90;;;;;;5018733;28;20045;-79
2023/09/06 10:01:32;;;;;;;6.47;2.63;;;24.90;99.90;;;;;;5002510;28;20041;-79
2023/09/06 10:03:59;;;;;;;6.18;2.90;;;24.90;99.90;;;;;;5018860;28;20445;-79
2023/09/06 10:06:27;;;;;;;5.97;2.42;;;24.90;99.90;;;;;;5018576;28;20490;-79
2023/09/06 10:08:55;;;;;;;6.32;2.40;;;25.00;99.90;;;;;;5002103;28;20493;-80
2023/09/06 10:11:21;;;;;;;4.75;2.40;;;25.00;99.90;;;;;;5018571;28;20436;-80
2023/09/06 10:13:47;;;;;;;6.13;2.55;;;25.00;99.90;;;;;;5002062;28;20042;-80
2023/09/06 10:16:14;;;;;;;6.00;2.28;;;25.10;99.90;;;;;;5018319;28;20041;-80
2023/09/06 10:18:39;;;;;;;4.50;2.20;;;25.30;99.90;;;;;;5001870;28;20042;-80
2023/09/06 10:21:06;;;;;;;6.25;2.10;;;25.50;99.90;;;;;;5001813;28;20042;-80
2023/09/06 10:23:40;;;;;;;4.47;2.30;;;25.40;99.90;;;;;;5018466;28;20079;-80
2023/09/06 10:26:06;;;;;;;4.13;1.98;;;25.40;99.90;;;;;;5018053;28;20038;-80
2023/09/06 10:28:33;;;;;;;5.50;2.33;;;25.40;99.90;;;;;;5004677;28;20398;-80
2023/09/06 10:31:07;;;;;;;4.85;2.50;;;25.50;99.90;;;;;;4995169;28;20157;-80
2023/09/06 10:33:35;;;;;;;5.13;2.53;;;25.50;99.90;;;;;;4996076;28;20121;-79
2023/09/06 10:36:19;;;;;;;5.00;2.50;;;25.50;99.90;;;;;;4996227;28;20054;-80
2023/09/06 10:38:51;;;;;;;5.22;2.47;;;25.50;99.90;;;;;;4995360;28;20050;-80
2023/09/06 10:41:18;;;;;;;;;;;25.50;99.90;;;;;;4979085;28;20038;-80
2023/09/06 10:44:00;;;;;;;5.35;2.50;;;25.50;99.90;;;;;;4979017;28;20278;-80
2023/09/06 10:46:28;;;;;;;5.97;2.30;;;25.50;99.90;;;;;;4978538;28;20054;-80
2023/09/06 10:49:12;;;;;;;4.85;2.50;;;25.50;99.90;;;;;;4995991;28;20530;-80
2023/09/06 10:51:57;;;;;;;4.82;2.20;;;25.60;99.90;;;;;;4994979;28;20121;-80
2023/09/06 10:54:34;;;;;;;5.97;2.30;;;25.60;99.90;;;;;;4995009;28;20038;-80
2023/09/06 10:57:02;;;;;;;4.20;2.30;;;25.80;99.90;;;;;;4994683;28;20074;-80
2023/09/06 10:59:28;;;;;;;6.32;2.65;;;25.90;99.90;;;;;;4978407;28;20049;-80
2023/09/06 11:02:18;;;;;;;6.82;2.47;;;25.90;99.90;;;;;;4993735;28;20065;-81
2023/09/06 11:04:44;;;;;;;4.60;2.40;;;25.90;99.90;;;;;;4994661;28;20042;-81
2023/09/06 11:07:10;;;;;;;3.38;1.80;;;26.10;99.90;;;;;;4978110;28;20034;-80
2023/09/06 11:09:50;;;;;;;4.20;2.03;;;26.30;99.90;;;;;;4995969;28;20101;-81
2023/09/06 11:12:16;;;;;;;6.13;2.35;;;26.40;99.90;;;;;;4978156;28;20034;-80
2023/09/06 11:14:46;;;;;;;5.13;2.35;;;26.40;99.90;;;;;;4978206;28;20046;-80
2023/09/06 11:17:23;;;;;;;5.47;2.00;;;26.50;99.90;;;;;;4994658;28;20042;-81
2023/09/06 11:19:49;;;;;;;4.70;2.40;;;26.50;99.90;;;;;;4994289;28;20490;-81
2023/09/06 11:22:16;;;;;;;4.20;2.15;;;26.70;99.90;;;;;;4994091;28;20042;-81
2023/09/06 11:24:42;;;;;;;4.22;2.13;;;26.70;99.90;;;;;;4995576;28;20070;-80
2023/09/06 11:27:33;;;;;;;4.63;2.17;;;26.80;99.90;;;;;;4994070;28;20050;-81
2023/09/06 11:30:21;;;;;;;4.93;2.17;;;26.90;99.90;;;;;;4977849;28;20038;-81
2023/09/06 11:32:55;;;;;;;5.20;2.10;;;27.00;99.90;;;;;;4995199;28;20321;-82
2023/09/06 11:35:34;;;;;;;4.07;2.10;;;27.10;99.90;;;;;;4977769;28;20084;-81
2023/09/06 11:38:02;;;;;;;5.70;1.92;;;27.10;99.90;;;;;;4993925;28;20052;-81
2023/09/06 11:40:32;;;;;;;4.38;2.22;;;27.10;99.90;;;;;;4994114;28;20042;-81
2023/09/06 11:43:02;;;;;;;4.90;2.10;;;27.20;99.90;;;;;;4994005;28;20053;-81
2023/09/06 11:45:31;;;;;;;2.90;1.80;;;27.20;99.90;;;;;;4993772;28;20045;-81
2023/09/06 11:47:59;;;;;;;4.90;2.30;;;27.30;99.90;;;;;;4977529;28;20049;-81
2023/09/06 11:50:29;;;;;;;4.90;2.10;;;27.30;99.90;;;;;;4993566;28;20042;-82
2023/09/06 11:52:56;;;;;;;5.07;1.98;;;27.30;99.90;;;;;;4993485;28;20034;-81
2023/09/06 11:55:22;;;;;;;4.55;1.85;;;27.30;99.90;;;;;;4977390;28;20173;-82
2023/09/06 11:57:52;;;;;;;4.43;1.92;;;27.30;99.90;;;;;;4994975;28;20117;-81
2023/09/06 12:00:28;;;;;;;3.70;2.08;;;27.30;99.90;;;;;;4994866;28;20529;-81
2023/09/06 12:03:09;;;;;;;5.40;2.00;;;27.40;99.90;;;;;;4977229;28;20049;-81
2023/09/06 12:05:41;;;;;;;4.77;2.30;;;27.40;99.90;;;;;;4993485;28;20422;-81
2023/09/06 12:08:08;;;;;;;5.70;2.10;;;27.40;99.90;;;;;;4977154;28;20046;-81
2023/09/06 12:10:35;;;;;;;4.45;1.90;;;27.40;99.90;;;;;;4993299;28;20038;-81
2023/09/06 12:13:01;;;;;;;4.60;2.00;;;27.50;99.90;;;;;;4976856;28;20517;-81
2023/09/06 12:15:27;;;;;;;3.67;2.03;;;27.40;99.90;;;;;;4977318;28;20450;-81
2023/09/06 12:17:54;;;;;;;6.07;2.15;;;27.50;99.90;;;;;;4977154;28;20046;-81
2023/09/06 12:20:23;;;;;;;6.30;2.35;;;27.50;99.90;;;;;;4976832;28;20522;-81
2023/09/06 12:22:52;;;;;;;3.85;2.10;;;27.50;99.90;;;;;;4993045;28;20522;-82
2023/09/06 12:25:19;;;;;;;4.85;2.00;;;27.50;99.90;;;;;;4993046;28;20109;-82
2023/09/06 12:27:46;;;;;;;6.90;2.25;;;27.50;99.90;;;;;;4977200;28;20046;-82
2023/09/06 12:30:16;;;;;;;5.05;1.92;;;27.60;99.90;;;;;;4977084;28;20434;-81
2023/09/06 12:32:42;;;;;;;4.13;2.00;;;27.60;99.90;;;;;;4976508;28;20054;-80
2023/09/06 12:35:08;;;;;;;4.47;1.80;;;27.70;99.90;;;;;;4977038;28;20057;-81
2023/09/06 12:37:35;;;;;;;3.65;2.08;;;27.70;99.90;;;;;;4976964;28;20047;-81
2023/09/06 12:40:10;;;;;;;4.32;2.20;;;27.70;99.90;;;;;;4993036;28;20043;-81
2023/09/06 12:42:36;;;;;;;4.25;2.28;;;27.60;99.90;;;;;;4976577;28;20097;-81
2023/09/06 12:45:03;;;;;;;4.07;1.88;;;27.70;99.90;;;;;;4992145;28;20042;-81
2023/09/06 12:47:32;;;;;;;3.60;2.10;;;27.60;99.90;;;;;;5002665;28;20038;-81
2023/09/06 12:49:59;;;;;;;4.88;2.03;;;27.50;99.90;;;;;;4996153;28;20034;-81
2023/09/06 12:52:25;;;;;;;3.92;1.73;;;27.60;99.90;;;;;;4991685;28;20034;-83